createdAt,value
2022-11-27T00:00:49.061Z,102210.69
2022-11-27T00:03:18.503Z,102212.63
2022-11-27T00:05:53.743Z,102196.88
2022-11-27T00:08:21.536Z,102205.50
2022-11-27T00:10:49.330Z,102211.69
2022-11-27T00:13:17.208Z,102218.72
2022-11-27T00:15:45.158Z,102208.19
2022-11-27T00:18:13.278Z,102233.41
2022-11-27T00:20:42.508Z,102236.91
2022-11-27T00:23:10.318Z,102233.41
2022-11-27T00:25:38.118Z,102231.81
2022-11-27T00:28:06.180Z,102222.31
2022-11-27T00:30:33.975Z,102236.09
2022-11-27T00:33:01.882Z,102240.47
2022-11-27T00:35:29.709Z,102248.31
2022-11-27T00:37:58.872Z,102245.72
2022-11-27T00:40:26.682Z,102242.31
2022-11-27T00:42:54.539Z,102247.53
2022-11-27T00:45:22.361Z,102235.38
2022-11-27T00:47:50.161Z,102239.69
2022-11-27T00:50:17.972Z,102233.59
2022-11-27T00:52:45.911Z,102198.72
2022-11-27T00:55:15.062Z,102242.19
2022-11-27T00:57:42.939Z,102233.59
2022-11-27T01:00:11.901Z,102241.44
2022-11-27T01:02:39.774Z,102241.50
2022-11-27T01:05:08.741Z,102217.09
2022-11-27T01:07:36.613Z,102228.53
2022-11-27T01:10:04.962Z,102190.19
2022-11-27T01:12:34.113Z,102221.47
2022-11-27T01:15:01.898Z,102223.31
2022-11-27T01:17:30.378Z,102213.78
2022-11-27T01:19:58.156Z,102219.88
2022-11-27T01:22:26.014Z,102214.66
2022-11-27T01:24:53.804Z,102218.13
2022-11-27T01:27:21.801Z,102225.97
2022-11-27T01:29:51.037Z,102213.69
2022-11-27T01:32:18.824Z,102211.97
2022-11-27T01:34:46.716Z,102216.44
2022-11-27T01:37:14.578Z,102214.53
2022-11-27T01:39:42.617Z,102211.19
2022-11-27T01:42:11.431Z,102212.88
2022-11-27T01:44:55.837Z,102217.31
2022-11-27T01:47:40.885Z,102217.31
2022-11-27T01:50:16.791Z,102209.53
2022-11-27T01:52:50.418Z,102210.41
2022-11-27T01:55:23.641Z,102205.16
2022-11-27T01:57:57.475Z,102197.28
2022-11-27T02:00:26.873Z,102197.22
2022-11-27T02:02:54.766Z,102193.66
2022-11-27T02:05:26.217Z,102203.31
2022-11-27T02:07:54.608Z,102204.19
2022-11-27T02:10:24.146Z,102199.13
2022-11-27T02:12:59.783Z,102194.75
2022-11-27T02:15:36.532Z,102194.78
2022-11-27T02:18:14.052Z,102179.16
2022-11-27T02:20:51.961Z,102188.63
2022-11-27T02:23:54.354Z,102191.16
2022-11-27T02:26:50.332Z,102203.41
2022-11-27T02:29:23.491Z,102193.81
2022-11-27T02:31:59.063Z,102194.69
2022-11-27T02:34:35.385Z,102181.66
2022-11-27T02:37:10.838Z,102193.78
2022-11-27T02:39:57.877Z,102192.94
2022-11-27T02:42:29.484Z,102182.50
2022-11-27T02:45:04.075Z,102188.50
2022-11-27T02:47:33.735Z,102191.06
2022-11-27T02:50:03.414Z,102149.91
2022-11-27T02:52:33.039Z,102190.09
2022-11-27T02:55:06.898Z,102187.50
2022-11-27T02:57:37.113Z,102162.16
2022-11-27T03:00:07.954Z,102171.81
2022-11-27T03:02:41.871Z,102169.22
2022-11-27T03:05:14.598Z,102154.50
2022-11-27T03:07:47.692Z,102151.78
2022-11-27T03:10:20.680Z,102141.34
2022-11-27T03:12:50.334Z,102155.34
2022-11-27T03:15:22.153Z,102157.06
2022-11-27T03:17:55.940Z,102165.75
2022-11-27T03:20:27.224Z,102164.81
2022-11-27T03:22:55.760Z,102162.19
2022-11-27T03:25:24.744Z,102169.16
2022-11-27T03:27:57.746Z,102169.22
2022-11-27T03:30:26.951Z,102162.19
2022-11-27T03:32:54.801Z,102154.41
2022-11-27T03:35:25.849Z,102151.78
2022-11-27T03:37:54.443Z,102155.25
2022-11-27T03:40:28.152Z,102155.25
2022-11-27T03:43:04.760Z,102082.91
2022-11-27T03:45:40.683Z,102109.06
2022-11-27T03:48:24.190Z,102144.88
2022-11-27T03:51:03.901Z,102137.03
2022-11-27T03:53:43.606Z,102144.84
2022-11-27T03:56:20.687Z,102104.78
2022-11-27T03:58:53.558Z,102130.06
2022-11-27T04:01:26.374Z,102128.31
2022-11-27T04:03:54.517Z,102135.97
2022-11-27T04:06:22.442Z,102132.63
2022-11-27T04:08:50.611Z,102143.94
2022-11-27T04:11:18.385Z,102141.25
2022-11-27T04:13:46.205Z,102108.16
2022-11-27T04:16:14.119Z,102143.09
2022-11-27T04:18:43.398Z,102153.41
2022-11-27T04:21:12.004Z,102144.75
2022-11-27T04:23:40.804Z,102113.38
2022-11-27T04:26:08.646Z,102132.53
2022-11-27T04:28:36.536Z,102124.81
2022-11-27T04:31:04.503Z,102126.34
2022-11-27T04:33:32.412Z,102118.53
2022-11-27T04:36:01.652Z,102069.75
2022-11-27T04:38:29.488Z,102108.09
2022-11-27T04:40:57.902Z,102095.91
2022-11-27T04:43:25.763Z,102099.38
2022-11-27T04:45:53.571Z,102098.66
2022-11-27T04:48:21.376Z,102099.31
2022-11-27T04:50:49.201Z,102096.75
2022-11-27T04:53:18.424Z,102105.50
2022-11-27T04:55:46.207Z,102097.44
2022-11-27T04:58:13.994Z,102087.28
2022-11-27T05:00:41.809Z,102074.19
2022-11-27T05:03:09.765Z,102076.88
2022-11-27T05:05:37.640Z,102066.31
2022-11-27T05:08:05.919Z,102066.38
2022-11-27T05:10:35.088Z,102047.16
2022-11-27T05:13:02.945Z,102033.16
2022-11-27T05:15:30.902Z,102066.19
2022-11-27T05:17:58.732Z,102059.28
2022-11-27T05:20:26.597Z,102055.75
2022-11-27T05:22:54.399Z,102050.47
2022-11-27T05:25:22.247Z,102051.94
2022-11-27T05:27:51.455Z,102057.22
2022-11-27T05:30:19.290Z,102045.19
2022-11-27T05:32:47.087Z,102043.44
2022-11-27T05:35:14.972Z,102034.63
2022-11-27T05:37:42.887Z,102033.78
2022-11-27T05:40:11.345Z,102056.28
2022-11-27T05:42:39.116Z,102068.22
2022-11-27T05:45:09.497Z,102050.03
2022-11-27T05:47:37.379Z,102062.16
2022-11-27T05:50:05.685Z,102050.84
2022-11-27T05:52:33.510Z,102060.31
2022-11-27T05:55:01.320Z,102064.63
2022-11-27T05:57:30.959Z,102056.66
2022-11-27T05:59:58.954Z,102046.25
2022-11-27T06:02:29.632Z,102047.94
2022-11-27T06:04:57.645Z,102043.63
2022-11-27T06:07:25.748Z,102052.25
2022-11-27T06:09:53.621Z,102052.28
2022-11-27T06:12:21.445Z,102050.34
2022-11-27T06:14:49.304Z,102044.28
2022-11-27T06:17:17.150Z,102045.25
2022-11-27T06:19:46.357Z,102044.25
2022-11-27T06:22:14.194Z,102041.53
2022-11-27T06:24:42.211Z,102045.75
2022-11-27T06:27:10.323Z,102045.56
2022-11-27T06:29:38.521Z,102044.69
2022-11-27T06:32:06.925Z,102045.50
2022-11-27T06:34:34.996Z,102022.13
2022-11-27T06:37:05.397Z,102033.16
2022-11-27T06:39:34.991Z,102022.72
2022-11-27T06:42:02.879Z,102020.00
2022-11-27T06:44:30.801Z,102033.91
2022-11-27T06:46:58.607Z,102027.81
2022-11-27T06:49:26.424Z,102029.53
2022-11-27T06:51:54.270Z,102038.97
2022-11-27T06:54:23.811Z,102039.66
2022-11-27T06:56:51.924Z,102034.56
2022-11-27T06:59:20.045Z,102027.50
2022-11-27T07:01:48.444Z,102036.22
2022-11-27T07:04:16.934Z,102025.88
2022-11-27T07:06:45.039Z,102025.81
2022-11-27T07:09:12.838Z,102023.88
2022-11-27T07:11:42.022Z,102015.25
2022-11-27T07:14:11.044Z,102016.16
2022-11-27T07:16:38.973Z,102022.19
2022-11-27T07:19:08.807Z,102022.22
2022-11-27T07:21:37.677Z,102028.00
2022-11-27T07:24:05.853Z,102023.88
2022-11-27T07:26:33.682Z,102028.97
2022-11-27T07:29:02.878Z,102027.91
2022-11-27T07:31:31.978Z,102009.72
2022-11-27T07:33:59.982Z,102013.31
2022-11-27T07:36:29.486Z,102015.91
2022-11-27T07:38:58.362Z,102005.91
2022-11-27T07:41:32.302Z,101994.59
2022-11-27T07:44:03.148Z,101993.72
2022-11-27T07:46:31.261Z,101997.19
2022-11-27T07:49:00.536Z,102001.44
2022-11-27T07:51:28.921Z,101993.16
2022-11-27T07:53:56.795Z,101954.91
2022-11-27T07:56:24.613Z,101978.84
2022-11-27T07:58:52.405Z,101969.25
2022-11-27T08:01:22.235Z,101960.84
2022-11-27T08:03:50.144Z,101963.56
2022-11-27T08:06:20.533Z,101953.56
2022-11-27T08:08:48.746Z,101948.47
2022-11-27T08:11:19.106Z,101936.88
2022-11-27T08:13:46.901Z,101952.00
2022-11-27T08:16:15.286Z,101940.31
2022-11-27T08:18:44.551Z,101939.59
2022-11-27T08:21:12.776Z,101929.69
2022-11-27T08:23:40.598Z,101937.47
2022-11-27T08:26:10.049Z,101902.97
2022-11-27T08:28:39.087Z,101884.72
2022-11-27T08:31:09.216Z,101794.63
2022-11-27T08:33:37.896Z,101945.94
2022-11-27T08:36:11.485Z,101923.06
2022-11-27T08:38:41.693Z,101952.13
2022-11-27T08:41:10.471Z,101943.94
2022-11-27T08:43:38.369Z,101943.34
2022-11-27T08:46:07.936Z,101925.88
2022-11-27T08:48:36.438Z,101875.78
2022-11-27T08:51:09.153Z,101898.66
2022-11-27T08:53:37.850Z,101876.38
2022-11-27T08:56:11.007Z,101934.53
2022-11-27T08:58:41.042Z,101900.63
2022-11-27T09:01:10.815Z,101909.44
2022-11-27T09:03:39.308Z,101919.75
2022-11-27T09:06:10.571Z,101869.50
2022-11-27T09:08:39.008Z,101905.72
2022-11-27T09:11:07.984Z,101885.13
2022-11-27T09:13:37.621Z,101875.47
2022-11-27T09:16:05.816Z,101915.38
2022-11-27T09:18:34.092Z,101875.06
2022-11-27T09:21:03.578Z,101830.53
2022-11-27T09:23:33.840Z,101930.09
2022-11-27T09:26:02.642Z,101935.16
2022-11-27T09:28:31.771Z,101931.53
2022-11-27T09:31:01.275Z,101900.44
2022-11-27T09:33:31.292Z,101923.00
2022-11-27T09:35:59.427Z,101927.91
2022-11-27T09:38:27.287Z,101919.59
2022-11-27T09:41:03.361Z,101861.84
2022-11-27T09:43:35.429Z,101921.53
2022-11-27T09:46:09.306Z,101939.19
2022-11-27T09:48:41.915Z,101917.63
2022-11-27T09:51:22.303Z,101912.72
2022-11-27T09:53:56.874Z,101912.81
2022-11-27T09:56:26.550Z,101916.72
2022-11-27T09:58:59.143Z,101917.72
2022-11-27T10:01:38.518Z,101905.53
2022-11-27T10:04:12.445Z,101890.00
2022-11-27T10:06:57.832Z,101887.47
2022-11-27T10:09:36.616Z,101897.53
2022-11-27T10:12:10.072Z,101859.22
2022-11-27T10:14:48.261Z,101890.34
2022-11-27T10:17:22.051Z,101895.53
2022-11-27T10:19:58.986Z,101862.22
2022-11-27T10:22:44.246Z,101889.28
2022-11-27T10:25:19.227Z,101899.06
2022-11-27T10:27:57.675Z,101888.44
2022-11-27T10:30:27.085Z,101888.34
2022-11-27T10:32:58.046Z,101873.91
2022-11-27T10:35:27.996Z,101872.44
2022-11-27T10:38:07.553Z,101842.72
2022-11-27T10:40:41.054Z,101867.13
2022-11-27T10:43:16.956Z,101820.03
2022-11-27T10:45:49.938Z,101845.22
2022-11-27T10:48:18.200Z,101815.56
2022-11-27T10:50:46.971Z,101839.09
2022-11-27T10:53:23.476Z,101847.44
2022-11-27T10:56:02.536Z,101817.97
2022-11-27T10:58:35.987Z,101715.44
2022-11-27T11:01:07.017Z,101849.22
2022-11-27T11:03:35.703Z,101818.06
2022-11-27T11:06:20.855Z,101858.69
2022-11-27T11:08:50.782Z,101806.81
2022-11-27T11:11:27.707Z,101836.50
2022-11-27T11:13:57.443Z,101828.25
2022-11-27T11:16:34.774Z,101840.69
2022-11-27T11:19:03.898Z,101818.00
2022-11-27T11:21:35.437Z,101839.09
2022-11-27T11:24:07.399Z,101805.41
2022-11-27T11:26:39.107Z,101807.88
2022-11-27T11:29:26.589Z,101823.56
2022-11-27T11:31:55.876Z,101802.53
2022-11-27T11:34:26.783Z,101796.97
2022-11-27T11:36:57.594Z,101811.19
2022-11-27T11:39:29.259Z,101680.75
2022-11-27T11:41:57.567Z,101766.88
2022-11-27T11:44:34.223Z,101767.94
2022-11-27T11:47:02.182Z,101758.47
2022-11-27T11:49:31.198Z,101794.44
2022-11-27T11:52:10.417Z,101727.00
2022-11-27T11:54:50.239Z,101784.25
2022-11-27T11:57:48.744Z,101748.63
2022-11-27T12:00:26.652Z,101753.97
2022-11-27T12:03:27.942Z,101756.63
2022-11-27T12:06:10.338Z,101740.06
2022-11-27T12:08:53.209Z,101759.38
2022-11-27T12:11:31.180Z,101758.34
2022-11-27T12:14:08.336Z,101761.78
2022-11-27T12:16:48.344Z,101720.69
2022-11-27T12:19:42.935Z,101754.03
2022-11-27T12:22:23.237Z,101741.03
2022-11-27T12:25:03.328Z,101737.53
2022-11-27T12:27:55.708Z,101744.41
2022-11-27T12:30:27.607Z,101731.50
2022-11-27T12:33:22.311Z,101727.78
2022-11-27T12:35:59.649Z,101735.78
2022-11-27T12:38:39.479Z,101728.78
2022-11-27T12:41:42.071Z,101714.78
2022-11-27T12:44:20.807Z,101728.59
2022-11-27T12:46:56.855Z,101708.88
2022-11-27T12:49:28.882Z,101702.88
2022-11-27T12:52:02.521Z,101670.72
2022-11-27T12:54:33.877Z,101726.72
2022-11-27T12:57:04.935Z,101695.41
2022-11-27T12:59:38.241Z,101722.53
2022-11-27T13:02:24.584Z,101716.53
2022-11-27T13:04:58.467Z,101716.47
2022-11-27T13:07:30.751Z,101701.66
2022-11-27T13:10:05.124Z,101640.94
2022-11-27T13:12:38.709Z,101724.81
2022-11-27T13:15:15.429Z,101722.22
2022-11-27T13:17:45.114Z,101702.59
2022-11-27T13:20:19.114Z,101707.06
2022-11-27T13:22:47.842Z,101690.59
2022-11-27T13:25:15.929Z,101676.75
2022-11-27T13:27:47.813Z,101695.56
2022-11-27T13:30:23.926Z,101696.31
2022-11-27T13:32:54.675Z,101697.94
2022-11-27T13:35:29.568Z,101687.53
2022-11-27T13:38:01.028Z,101682.59
2022-11-27T13:40:33.046Z,101691.94
2022-11-27T13:43:06.983Z,101678.94
2022-11-27T13:45:38.373Z,101686.00
2022-11-27T13:48:26.114Z,101687.84
2022-11-27T13:50:55.802Z,101684.34
2022-11-27T13:53:32.369Z,101691.94
2022-11-27T13:56:00.314Z,101676.50
2022-11-27T13:58:33.571Z,101663.38
2022-11-27T14:01:13.824Z,101676.50
2022-11-27T14:03:41.800Z,101679.78
2022-11-27T14:06:24.096Z,101680.50
2022-11-27T14:08:55.778Z,101678.94
2022-11-27T14:11:33.686Z,101676.44
2022-11-27T14:14:04.066Z,101676.44
2022-11-27T14:16:36.629Z,101626.69
2022-11-27T14:19:06.905Z,101666.56
2022-11-27T14:21:42.776Z,101641.69
2022-11-27T14:24:36.054Z,101655.41
2022-11-27T14:27:14.505Z,101665.97
2022-11-27T14:29:42.382Z,101655.47
2022-11-27T14:32:13.473Z,101657.25
2022-11-27T14:34:41.641Z,101651.94
2022-11-27T14:37:22.614Z,101657.22
2022-11-27T14:39:50.576Z,101648.56
2022-11-27T14:42:27.912Z,101643.50
2022-11-27T14:45:03.923Z,101640.88
2022-11-27T14:47:32.554Z,101652.03
2022-11-27T14:50:01.449Z,101650.97
2022-11-27T14:52:30.944Z,101546.78
2022-11-27T14:54:59.886Z,101645.06
2022-11-27T14:57:29.779Z,101635.66
2022-11-27T15:00:12.382Z,101610.41
2022-11-27T15:02:40.498Z,101645.91
2022-11-27T15:05:09.406Z,101631.09
2022-11-27T15:07:46.648Z,101625.97
2022-11-27T15:10:33.750Z,101624.34
2022-11-27T15:13:03.387Z,101624.31
2022-11-27T15:15:34.871Z,101614.00
2022-11-27T15:18:05.859Z,101620.06
2022-11-27T15:20:38.906Z,101624.38
2022-11-27T15:23:17.594Z,101589.66
2022-11-27T15:25:47.451Z,101626.09
2022-11-27T15:28:30.635Z,101617.31
2022-11-27T15:30:59.494Z,101622.63
2022-11-27T15:33:29.244Z,101625.28
2022-11-27T15:36:17.714Z,101601.00
2022-11-27T15:38:47.796Z,101617.56
2022-11-27T15:41:24.739Z,101617.44
2022-11-27T15:43:53.133Z,101618.25
2022-11-27T15:46:26.468Z,101546.41
2022-11-27T15:48:54.323Z,101607.09
2022-11-27T15:51:22.234Z,101592.34
2022-11-27T15:53:51.584Z,101599.34
2022-11-27T15:56:19.475Z,101604.59
2022-11-27T15:58:47.378Z,101574.19
2022-11-27T16:01:15.236Z,101604.38
2022-11-27T16:03:43.132Z,101565.50
2022-11-27T16:06:11.169Z,101593.28
2022-11-27T16:08:39.094Z,101589.03
2022-11-27T16:11:13.544Z,101570.69
2022-11-27T16:13:41.696Z,101595.00
2022-11-27T16:16:10.011Z,101587.22
2022-11-27T16:18:37.852Z,101579.44
2022-11-27T16:21:07.955Z,101568.97
2022-11-27T16:23:36.669Z,101572.66
2022-11-27T16:26:05.283Z,101581.28
2022-11-27T16:28:34.860Z,101553.56
2022-11-27T16:31:04.038Z,101550.09
2022-11-27T16:33:33.516Z,101567.50
2022-11-27T16:36:06.247Z,101553.59
2022-11-27T16:38:34.205Z,101549.41
2022-11-27T16:41:03.114Z,101536.19
2022-11-27T16:43:34.657Z,101546.66
2022-11-27T16:46:07.465Z,101538.91
2022-11-27T16:48:36.034Z,101530.22
2022-11-27T16:51:06.353Z,101493.78
2022-11-27T16:53:37.830Z,101541.50
2022-11-27T16:56:06.186Z,101550.28
2022-11-27T16:58:37.741Z,101547.72
2022-11-27T17:01:07.817Z,101538.19
2022-11-27T17:03:36.518Z,101543.34
2022-11-27T17:06:09.103Z,101533.88
2022-11-27T17:08:37.087Z,101527.78
2022-11-27T17:11:12.510Z,101506.00
2022-11-27T17:13:40.722Z,101515.63
2022-11-27T17:16:10.415Z,101493.03
2022-11-27T17:18:38.727Z,101512.09
2022-11-27T17:21:08.234Z,101496.47
2022-11-27T17:23:36.059Z,101458.31
2022-11-27T17:26:08.202Z,101470.47
2022-11-27T17:28:36.649Z,101455.69
2022-11-27T17:31:10.287Z,101453.94
2022-11-27T17:33:40.026Z,101487.91
2022-11-27T17:36:08.170Z,101505.13
2022-11-27T17:38:35.953Z,101494.66
2022-11-27T17:41:04.417Z,101467.88
2022-11-27T17:43:32.342Z,101487.72
2022-11-27T17:46:00.401Z,101499.09
2022-11-27T17:48:28.899Z,101500.81
2022-11-27T17:50:58.116Z,101479.25
2022-11-27T17:53:25.972Z,101481.03
2022-11-27T17:55:55.425Z,101481.09
2022-11-27T17:58:23.290Z,101482.81
2022-11-27T18:00:51.191Z,101481.03
2022-11-27T18:03:18.988Z,101478.38
2022-11-27T18:05:46.787Z,101465.38
2022-11-27T18:08:16.050Z,101467.97
2022-11-27T18:10:43.950Z,101476.66
2022-11-27T18:13:11.764Z,101467.06
2022-11-27T18:15:39.622Z,101466.31
2022-11-27T18:18:07.777Z,101458.47
2022-11-27T18:20:36.367Z,101460.25
2022-11-27T18:23:04.233Z,101454.25
2022-11-27T18:25:33.476Z,101449.91
2022-11-27T18:28:03.201Z,101430.03
2022-11-27T18:30:31.081Z,101455.16
2022-11-27T18:32:58.911Z,101453.41
2022-11-27T18:35:26.842Z,101446.47
2022-11-27T18:37:54.659Z,101443.03
2022-11-27T18:40:22.468Z,101440.47
2022-11-27T18:42:51.795Z,101439.63
2022-11-27T18:45:32.358Z,101444.81
2022-11-27T18:48:01.190Z,101442.25
2022-11-27T18:50:30.000Z,101422.38
2022-11-27T18:52:57.938Z,101440.53
2022-11-27T18:55:25.994Z,101437.84
2022-11-27T18:57:55.726Z,101439.66
2022-11-27T19:00:23.772Z,101438.75
2022-11-27T19:02:51.707Z,101436.19
2022-11-27T19:05:19.537Z,101431.94
2022-11-27T19:10:21.551Z,101429.34
2022-11-27T19:12:49.366Z,101420.63
2022-11-27T19:15:18.674Z,101427.59
2022-11-27T19:17:46.583Z,101424.16
2022-11-27T19:20:14.717Z,101431.88
2022-11-27T19:22:42.622Z,101433.69
2022-11-27T19:25:10.822Z,101411.13
2022-11-27T19:27:38.720Z,101418.97
2022-11-27T19:30:07.849Z,101410.34
2022-11-27T19:32:37.068Z,101410.38
2022-11-27T19:35:07.328Z,101400.00
2022-11-27T19:37:36.961Z,101400.03
2022-11-27T19:40:06.525Z,101394.81
2022-11-27T19:42:34.377Z,101361.09
2022-11-27T19:45:02.226Z,101380.09
2022-11-27T19:47:30.298Z,101380.94
2022-11-27T19:49:59.456Z,101393.06
2022-11-27T19:52:27.400Z,101408.63
2022-11-27T19:54:55.306Z,101330.72
2022-11-27T19:57:23.297Z,101395.69
2022-11-27T19:59:51.233Z,101401.81
2022-11-27T20:02:19.201Z,101394.06
2022-11-27T20:04:47.098Z,101362.03
2022-11-27T20:07:16.461Z,101349.91
2022-11-27T20:09:44.314Z,101374.97
2022-11-27T20:12:12.265Z,101385.34
2022-11-27T20:14:40.415Z,101384.47
2022-11-27T20:17:08.595Z,101386.16
2022-11-27T20:19:36.665Z,101374.09
2022-11-27T20:22:04.591Z,101371.53
2022-11-27T20:25:04.091Z,101381.84
2022-11-27T20:27:30.700Z,101372.38
2022-11-27T20:30:00.051Z,101375.03
2022-11-27T20:32:27.883Z,101369.78
2022-11-27T20:34:55.715Z,101366.41
2022-11-27T20:37:23.607Z,101363.75
2022-11-27T20:39:52.794Z,101363.72
2022-11-27T20:42:22.301Z,101363.78
2022-11-27T20:44:50.307Z,101368.94
2022-11-27T20:47:18.168Z,101356.00
2022-11-27T20:49:46.113Z,101341.34
2022-11-27T20:52:14.602Z,101346.56
2022-11-27T20:54:42.515Z,101352.56
2022-11-27T20:57:14.163Z,101354.34
2022-11-27T20:59:42.737Z,101358.63
2022-11-27T21:02:11.807Z,101355.22
2022-11-27T21:04:39.602Z,101355.16
2022-11-27T21:07:07.634Z,101350.03
2022-11-27T21:09:35.423Z,101357.81
2022-11-27T21:12:03.256Z,101356.88
2022-11-27T21:14:32.428Z,101324.91
2022-11-27T21:17:04.455Z,101339.63
2022-11-27T21:19:32.743Z,101350.91
2022-11-27T21:22:00.483Z,101341.41
2022-11-27T21:24:28.696Z,101341.38
2022-11-27T21:26:56.675Z,101329.28
2022-11-27T21:29:25.804Z,101320.63
2022-11-27T21:31:55.512Z,101329.25
2022-11-27T21:34:23.824Z,101333.63
2022-11-27T21:36:51.724Z,101318.09
2022-11-27T21:39:21.034Z,101326.75
2022-11-27T21:41:50.320Z,101327.63
2022-11-27T21:44:18.810Z,101313.78
2022-11-27T21:46:47.296Z,101313.78
2022-11-27T21:49:18.119Z,101315.47
2022-11-27T21:51:46.196Z,101306.88
2022-11-27T21:54:15.912Z,101302.56
2022-11-27T21:56:43.811Z,101290.47
2022-11-27T21:59:13.847Z,101311.19
2022-11-27T22:01:41.998Z,101300.78
2022-11-27T22:04:09.873Z,101310.31
2022-11-27T22:06:40.413Z,101280.84
2022-11-27T22:09:14.915Z,101328.41
2022-11-27T22:11:43.949Z,101320.59
2022-11-27T22:14:11.913Z,101254.84
2022-11-27T22:16:45.432Z,101309.44
2022-11-27T22:19:14.279Z,101320.69
2022-11-27T22:21:44.507Z,101297.31
2022-11-27T22:24:18.352Z,101291.31
2022-11-27T22:26:47.746Z,101298.22
2022-11-27T22:29:15.568Z,101282.66
2022-11-27T22:31:43.361Z,101275.78
2022-11-27T22:34:11.172Z,101275.81
2022-11-27T22:36:39.025Z,101249.84
2022-11-27T22:39:08.914Z,101277.53
2022-11-27T22:41:38.670Z,101248.09
2022-11-27T22:44:07.620Z,101269.75
2022-11-27T22:46:36.562Z,101268.81
2022-11-27T22:49:07.354Z,101258.50
2022-11-27T22:51:37.076Z,101262.00
2022-11-27T22:54:06.550Z,101252.44
2022-11-27T22:56:36.308Z,101248.13
2022-11-27T22:59:31.128Z,101233.50
2022-11-27T23:01:53.611Z,101246.44
2022-11-27T23:04:21.427Z,101230.88
2022-11-27T23:06:49.205Z,101226.59
2022-11-27T23:09:17.825Z,101232.66
2022-11-27T23:11:47.782Z,101230.88
2022-11-27T23:14:15.640Z,101242.97
2022-11-27T23:16:43.569Z,101247.28
2022-11-27T23:19:12.115Z,101231.78
2022-11-27T23:21:40.502Z,101235.25
2022-11-27T23:24:10.893Z,101239.53
2022-11-27T23:26:38.829Z,101237.81
2022-11-27T23:29:08.242Z,101237.81
2022-11-27T23:31:36.574Z,101224.88
2022-11-27T23:34:07.250Z,101216.25
2022-11-27T23:36:35.904Z,101215.38
2022-11-27T23:39:05.816Z,101214.53
2022-11-27T23:41:33.941Z,101209.38
2022-11-27T23:44:02.282Z,101205.91
2022-11-27T23:46:32.334Z,101204.19
2022-11-27T23:49:01.476Z,101200.75
2022-11-27T23:51:31.158Z,101192.13
2022-11-27T23:53:59.316Z,101185.19
2022-11-27T23:56:29.132Z,101187.81
2022-11-27T23:58:57.642Z,101174.84
